Victory — E5U2349 — position and weather

sailwx.info

Track history (hours):
 
Tides and Currents Weather Stations Pressure Air Temp Water Temp Dewpoint Dewpoint Depression Visibility Wind Speed Wind Dir Waves Ship Positions

Victory

Last reported at 2016-Jul-16 11:30 UTC. Time now 2016-Jul-27 11:33 UTC.
Position N 40°48' E 013°45'.
Warning: this ship's position is 11 days out of date.

Length 51 m; draft 3 m.

Type: Pleasure craft. MMSI: 518399000.

Date/timePositionNaut miles runAvg speedWind from/ knotsBaromVisibWave heightAir tempDewpointWater temp
2016-Jul-16 11:30N 40°48' E 013°45'1010.6
2016-Jul-16 10:33N 40°47' E 013°58'1110.5
2016-Jul-16 09:33N 40°47' E 014°12'3 0.1
2016-Jul-14 08:19N 40°49' E 014°14'1413.9
2016-Jul-14 07:17N 40°35' E 014°15'1 0.1
2016-Jul-13 17:15N 40°33' E 014°15'0 0.4
2016-Jul-13 16:33N 40°34' E 014°15'12 0.4
2016-Jul-12 11:10N 40°37' E 014°31'0 0.0
2016-Jul-11 22:17N 40°37' E 014°31'13 1.9
2016-Jul-11 15:29N 40°34' E 014°14'0 0.2
2016-Jul-11 13:30N 40°34' E 014°14'0 0.0
2016-Jul-11 12:30N 40°34' E 014°14'1111.5
2016-Jul-11 11:34N 40°44' E 014°15'5 1.0
2016-Jul-11 06:28N 40°50' E 014°13'0 0.0
2016-Jul-10 22:31N 40°50' E 014°13'0 0.0
2016-Jul-10 20:13N 40°50' E 014°13'0 0.0
2016-Jul-09 16:07N 40°50' E 014°13'0 0.0
2016-Jul-09 15:31N 40°50' E 014°13'0 0.0
2016-Jul-09 13:28N 40°50' E 014°13'0 0.0
2016-Jul-09 12:31N 40°50' E 014°13'0 0.0
2016-Jul-09 02:25N 40°50' E 014°13'0 0.0
2016-Jul-08 14:10N 40°50' E 014°13'0 0.0
2016-Jul-08 13:28N 40°50' E 014°13'0 0.0
2016-Jul-08 12:25N 40°50' E 014°13'0 0.0
2016-Jul-06 12:19N 40°50' E 014°13'  
Track history (hours):
 
Tides and Currents Weather Stations Pressure Air Temp Water Temp Dewpoint Dewpoint Depression Visibility Wind Speed Wind Dir Waves Ship Positions

Victory

Last reported at 2016-Jul-16 11:30 UTC. Time now 2016-Jul-27 11:33 UTC.
Position N 40°48' E 013°45'.
Warning: this ship's position is 11 days out of date.

Length 51 m; draft 3 m.

Type: Pleasure craft. MMSI: 518399000.

Date/timePositionNaut miles runAvg speedWind from/ knotsBaromVisibWave heightAir tempDewpointWater temp
2016-Jul-16 11:30N 40°48' E 013°45'1010.6
2016-Jul-16 10:33N 40°47' E 013°58'1110.5
2016-Jul-16 09:33N 40°47' E 014°12'3 0.1
2016-Jul-14 08:19N 40°49' E 014°14'1413.9
2016-Jul-14 07:17N 40°35' E 014°15'1 0.1
2016-Jul-13 17:15N 40°33' E 014°15'0 0.4
2016-Jul-13 16:33N 40°34' E 014°15'12 0.4
2016-Jul-12 11:10N 40°37' E 014°31'0 0.0
2016-Jul-11 22:17N 40°37' E 014°31'13 1.9
2016-Jul-11 15:29N 40°34' E 014°14'0 0.2
2016-Jul-11 13:30N 40°34' E 014°14'0 0.0
2016-Jul-11 12:30N 40°34' E 014°14'1111.5
2016-Jul-11 11:34N 40°44' E 014°15'5 1.0
2016-Jul-11 06:28N 40°50' E 014°13'0 0.0
2016-Jul-10 22:31N 40°50' E 014°13'0 0.0
2016-Jul-10 20:13N 40°50' E 014°13'0 0.0
2016-Jul-09 16:07N 40°50' E 014°13'0 0.0
2016-Jul-09 15:31N 40°50' E 014°13'0 0.0
2016-Jul-09 13:28N 40°50' E 014°13'0 0.0
2016-Jul-09 12:31N 40°50' E 014°13'0 0.0
2016-Jul-09 02:25N 40°50' E 014°13'0 0.0
2016-Jul-08 14:10N 40°50' E 014°13'0 0.0
2016-Jul-08 13:28N 40°50' E 014°13'0 0.0
2016-Jul-08 12:25N 40°50' E 014°13'0 0.0
2016-Jul-06 12:19N 40°50' E 014°13'  

Dump ship's entire track history